SpazioLink.com il tuo mini portale

Terremoti in Italia, posizione geografica

Spaziolink il MiniPortale

Home Sfondi Screenmates SuperEnalotto Posizione navi Terremoti Calendario feste Barzellette Frasi utili Giochi Meteo Gifs Software Ricerca
Lista dei terremoti in Italia in tempo reale dopo l'elaborazione dei valori rilevati dai sensori dislocati nelle zone interessate, comprendenti gli eventi sismici di elevata magnitudo sull'intero globo, per visualizzare la posizione dell'epicentro su Google Maps cliccare sul nome del luogo evidenziato in blu.
DATA ORA MAG ≥ 2 ZONA REGIONE LAT LONG PROF km
26/07/2021 14:09:09 Mwp 6.3 Minahassa Peninsula, Sulawesi, Indonesia (Sea: Indonesia) Mondo -0.75 122.02 34.8
26/07/2021 00:24:16 ML 2.1 Tirreno Meridionale (MARE) Mare 38.41 15.42 124.8
25/07/2021 13:57:43 ML 2.2 6 km a est di Grosio (SO) Lombardia 46.27 10.34 8.3
25/07/2021 07:37:19 ML 2.3 Isole Eolie (Messina) Mare 38.38 14.86 156.3
25/07/2021 06:17:20 ML 2.1 Costa Siciliana nord-orientale (Messina) Mare 38.34 14.80 183.3
24/07/2021 20:52:30 ML 2.1 5 km a ovest di Montechiarugolo (PR) Emilia Romagna 44.71 10.36 6.5
24/07/2021 20:40:40 ML 2.3 6 km a sud di Pomarance (PI) Toscana 43.25 10.86 9.0
24/07/2021 14:51:41 Mwp 6.2 Kermadec Islands, New Zealand (Sea: New Zealand) Mondo -29.81 -177.06 87.5
24/07/2021 04:07:40 mb 5.1 Crete, Greece (Land: Greece) Mondo 35.16 25.23 19.5
24/07/2021 00:52:25 ML 3.9 Tirreno Meridionale (MARE) Mare 39.42 15.58 277.1
24/07/2021 00:10:09 ML 2.0 3 km a est di Troina (EN) Sicilia 37.78 14.63 10.5
23/07/2021 22:49:00 Mwp 6.7 Philippines (Sea) Mondo 13.62 120.82 140.2
23/07/2021 18:34:13 ML 2.1 3 km a sud-ovest di Cavallermaggiore (CN) Piemonte 44.70 7.66 11.0
23/07/2021 06:58:27 ML 2.4 3 km a sud-ovest di Baragiano (PZ) Basilicata 40.66 15.58 8.9
23/07/2021 01:41:09 ML 2.8 Tirreno Meridionale (MARE) Mare 39.51 15.40 273.1
22/07/2021 18:49:39 ML 4.4 Greece (Land) Mondo 39.76 20.60 23.5
22/07/2021 18:11:22 ML 2.0 2 km a sud di Massa Martana (PG) Umbria 42.76 12.52 9.0
22/07/2021 17:52:33 ML 2.8 2 km a sud-est di Massa Martana (PG) Umbria 42.76 12.54 9.0
22/07/2021 16:16:18 ML 3.0 3 km a ovest di Capracotta (IS) Molise 41.82 14.23 20.6
22/07/2021 16:06:22 ML 3.4 4 km a sud-est di Massa Martana (PG) Umbria 42.76 12.56 7.1
21/07/2021 23:15:18 Mwp 6.5 South of Panama (Sea: Panama) Mondo 7.69 -82.89 19.5
21/07/2021 09:23:27 ML 2.1 4 km a sud-ovest di Castelbuono (PA) Sicilia 37.91 14.05 7.2
21/07/2021 05:14:52 ML 2.1 Canale di Sicilia meridionale (MARE) Mare 36.52 13.90 4.2
21/07/2021 04:25:53 ML 2.3 2 km a est di Felino (PR) Emilia Romagna 44.70 10.26 9.4
21/07/2021 04:17:52 ML 2.2 3 km a est di Felino (PR) Emilia Romagna 44.70 10.29 17.6
21/07/2021 00:18:21 ML 2.2 3 km a est di Santa Maria la Fossa (CE) Campania 41.11 14.16 10.0
20/07/2021 22:06:25 ML 2.0 1 km a sud-est di Barcellona Pozzo di Gotto (ME) Sicilia 38.14 15.23 10.0
20/07/2021 15:57:58 ML 2.4 Canale di Sicilia meridionale (MARE) Mare 36.69 13.34 18.9
20/07/2021 11:43:55 ML 3.1 Canale di Sicilia meridionale (MARE) Mare 36.66 13.32 31.9
20/07/2021 05:11:26 ML 2.3 2 km a sud di Ascoli Piceno (AP) Marche 42.84 13.58 19.6
19/07/2021 19:15:31 ML 2.0 3 km a nord-ovest di Barete (AQ) Abruzzo 42.48 13.26 13.8
Locations of visitors to this page (counting)
- subnet mask - partners - ipcheck - favicon - speedtest - canale youtube - programmone